Time;durP1;ratioP1;P1;durP2;ratioP2;P2;SDS_P1;SDS_P2;PMS_P1;PMS_P2;Temp;Humidity;BMP_temperature;BMP_pressure;BME280_temperature;BME280_humidity;BME280_pressure;Samples;Min_cycle;Max_cycle;Signal;HPM_P1;HPM_P2
2021/06/24 00:01:07;;;;;;;0.70;0.60;;;19.00;99.90;;;;;;5008245;28;20454;-59
2021/06/24 00:03:35;;;;;;;1.57;0.70;;;19.00;99.90;;;;;;4996111;28;20454;-58
2021/06/24 00:06:03;;;;;;;2.03;0.70;;;18.90;99.90;;;;;;5011589;28;20460;-59
2021/06/24 00:08:32;;;;;;;0.70;0.70;;;18.70;99.90;;;;;;5009404;28;20464;-59
2021/06/24 00:11:00;;;;;;;1.13;0.70;;;18.70;99.90;;;;;;4998642;28;20461;-59
2021/06/24 00:13:28;;;;;;;0.80;0.67;;;18.70;99.90;;;;;;5009947;28;20456;-59
2021/06/24 00:15:56;;;;;;;0.97;0.77;;;18.80;99.90;;;;;;4996304;28;20854;-58
2021/06/24 00:18:23;;;;;;;0.90;0.60;;;18.80;99.90;;;;;;5000501;28;20497;-58
2021/06/24 00:20:50;;;;;;;0.70;0.70;;;18.60;99.90;;;;;;4999850;28;20449;-59
2021/06/24 00:23:18;;;;;;;1.97;0.90;;;18.50;99.90;;;;;;5011415;28;20836;-58
2021/06/24 00:25:46;;;;;;;2.10;0.70;;;18.50;99.90;;;;;;5010834;28;20457;-58
2021/06/24 00:28:16;;;;;;;1.83;0.77;;;18.60;99.90;;;;;;4997553;28;20468;-60
2021/06/24 00:30:43;;;;;;;0.80;0.80;;;18.60;99.90;;;;;;5015148;28;20457;-59
2021/06/24 00:33:11;;;;;;;0.90;0.80;;;18.20;99.90;;;;;;5009032;28;20437;-58
2021/06/24 00:35:38;;;;;;;1.70;1.10;;;18.10;99.90;;;;;;5015564;28;20457;-59
2021/06/24 00:38:05;;;;;;;1.03;0.90;;;18.00;99.90;;;;;;5015258;28;20488;-58
2021/06/24 00:40:33;;;;;;;2.70;1.07;;;17.80;99.90;;;;;;5010055;28;20469;-58
2021/06/24 00:43:02;;;;;;;4.20;1.07;;;17.70;99.90;;;;;;5014533;28;20450;-58
2021/06/24 00:45:29;;;;;;;0.97;0.83;;;17.50;99.90;;;;;;5014633;28;20449;-58
2021/06/24 00:47:56;;;;;;;0.90;0.80;;;17.50;99.90;;;;;;4996249;28;20534;-58
2021/06/24 00:50:24;;;;;;;1.43;0.90;;;17.50;99.90;;;;;;4995547;28;20478;-57
2021/06/24 00:52:51;;;;;;;0.93;0.93;;;17.60;99.90;;;;;;5005001;28;20852;-59
2021/06/24 00:55:39;;;;;;;0.80;0.80;;;17.70;99.90;;;;;;5009705;28;20488;-58
2021/06/24 00:58:07;;;;;;;0.90;0.80;;;17.90;99.90;;;;;;5014956;28;20485;-58
2021/06/24 01:00:34;;;;;;;1.00;1.00;;;18.00;99.90;;;;;;5013728;28;20485;-58
2021/06/24 01:03:01;;;;;;;3.63;1.10;;;18.00;99.90;;;;;;5011507;28;20473;-59
2021/06/24 01:05:28;;;;;;;7.03;1.10;;;18.10;99.90;;;;;;4995054;28;20454;-59
2021/06/24 01:07:55;;;;;;;1.70;0.90;;;18.00;99.90;;;;;;5014317;28;20453;-59
2021/06/24 01:10:22;;;;;;;0.80;0.80;;;18.00;99.90;;;;;;4999450;28;20855;-58
2021/06/24 01:12:50;;;;;;;1.17;0.80;;;18.00;99.90;;;;;;5012993;28;20460;-58
2021/06/24 01:15:18;;;;;;;2.30;0.80;;;17.90;99.90;;;;;;5008836;28;20457;-58
2021/06/24 01:17:45;;;;;;;4.20;1.00;;;17.80;99.90;;;;;;5014200;28;20481;-59
2021/06/24 01:20:14;;;;;;;4.70;1.00;;;17.60;99.90;;;;;;5012483;28;20500;-58
2021/06/24 01:22:41;;;;;;;2.40;1.03;;;17.60;99.90;;;;;;5013839;28;20452;-58
2021/06/24 01:25:10;;;;;;;3.00;0.90;;;17.60;99.90;;;;;;5014439;28;20469;-57
2021/06/24 01:27:37;;;;;;;1.43;0.90;;;17.70;99.90;;;;;;5004617;28;20455;-58
2021/06/24 01:30:06;;;;;;;1.10;0.80;;;17.60;99.90;;;;;;5008542;28;20853;-58
2021/06/24 01:32:34;;;;;;;1.10;1.00;;;17.70;99.90;;;;;;5000067;28;20939;-58
2021/06/24 01:35:01;;;;;;;1.30;1.00;;;17.70;99.90;;;;;;5002999;28;20804;-58
2021/06/24 01:37:28;;;;;;;0.80;0.80;;;17.60;99.90;;;;;;4995138;28;20450;-58
2021/06/24 01:39:55;;;;;;;1.20;1.10;;;17.50;99.90;;;;;;4998743;28;21018;-58
2021/06/24 01:42:23;;;;;;;1.50;0.80;;;17.50;99.90;;;;;;5011676;28;20449;-58
2021/06/24 01:44:50;;;;;;;1.30;0.93;;;17.50;99.90;;;;;;5013703;28;20462;-57
2021/06/24 01:47:17;;;;;;;2.43;1.20;;;17.50;99.90;;;;;;5014003;28;20453;-57
2021/06/24 01:49:45;;;;;;;1.53;0.90;;;17.50;99.90;;;;;;5014182;28;20476;-57
2021/06/24 01:52:12;;;;;;;1.80;1.00;;;17.50;99.90;;;;;;5013438;28;21074;-57
2021/06/24 01:54:45;;;;;;;0.80;0.80;;;17.40;99.90;;;;;;5012199;28;20848;-58
2021/06/24 01:57:15;;;;;;;0.90;0.90;;;17.40;99.90;;;;;;5013552;28;20468;-58
2021/06/24 01:59:45;;;;;;;1.00;0.90;;;17.40;99.90;;;;;;5013606;28;20856;-58
2021/06/24 02:02:12;;;;;;;1.63;1.13;;;17.40;99.90;;;;;;5012813;28;20468;-58
2021/06/24 02:04:39;;;;;;;1.10;1.07;;;17.30;99.90;;;;;;5012566;28;20892;-58
2021/06/24 02:07:06;;;;;;;1.83;1.00;;;17.30;99.90;;;;;;5013410;28;20469;-59
2021/06/24 02:09:33;;;;;;;2.60;1.10;;;17.20;99.90;;;;;;5013088;28;20484;-58
2021/06/24 02:12:00;;;;;;;2.20;1.33;;;17.20;99.90;;;;;;4995520;28;20835;-58
2021/06/24 02:14:29;;;;;;;1.73;1.40;;;17.20;99.90;;;;;;5006842;28;20464;-58
2021/06/24 02:16:57;;;;;;;4.03;1.40;;;17.10;99.90;;;;;;5013544;28;20445;-58
2021/06/24 02:19:24;;;;;;;4.80;1.30;;;17.20;99.90;;;;;;5013267;28;20485;-58
2021/06/24 02:21:51;;;;;;;2.40;1.43;;;17.10;99.90;;;;;;5012976;28;20453;-58
2021/06/24 02:24:18;;;;;;;3.27;1.37;;;17.10;99.90;;;;;;5013496;28;20456;-58
2021/06/24 02:26:46;;;;;;;2.03;1.37;;;17.10;99.90;;;;;;5012100;28;20457;-58
2021/06/24 02:29:13;;;;;;;1.73;1.63;;;17.10;99.90;;;;;;5012889;28;20479;-58
2021/06/24 02:31:40;;;;;;;1.40;1.20;;;17.10;99.90;;;;;;5008274;28;20982;-59
2021/06/24 02:34:09;;;;;;;1.57;1.47;;;17.10;99.90;;;;;;5008551;28;20458;-58
2021/06/24 02:36:36;;;;;;;1.63;1.53;;;17.00;99.90;;;;;;5013265;28;20461;-58
2021/06/24 02:39:04;;;;;;;2.27;1.50;;;16.90;99.90;;;;;;5012782;28;20485;-58
2021/06/24 02:41:33;;;;;;;1.57;1.10;;;16.70;99.90;;;;;;5006211;28;20480;-58
2021/06/24 02:44:00;;;;;;;1.83;1.13;;;16.80;99.90;;;;;;5006651;28;20468;-58
2021/06/24 02:46:27;;;;;;;1.77;1.57;;;16.90;99.90;;;;;;5012367;28;20537;-58
2021/06/24 02:48:54;;;;;;;1.67;1.40;;;16.90;99.90;;;;;;5011208;28;21030;-58
2021/06/24 02:51:23;;;;;;;2.50;1.30;;;16.80;99.90;;;;;;5003746;28;20459;-58
2021/06/24 02:53:50;;;;;;;1.53;1.40;;;16.80;99.90;;;;;;5004433;28;20457;-58
2021/06/24 02:56:17;;;;;;;1.60;1.40;;;16.70;99.90;;;;;;5013358;28;20468;-58
2021/06/24 02:58:44;;;;;;;1.60;1.50;;;16.80;99.90;;;;;;5012380;28;20489;-58
2021/06/24 03:01:11;;;;;;;2.90;1.30;;;16.80;99.90;;;;;;5013008;28;20458;-58
2021/06/24 03:03:38;;;;;;;1.37;1.27;;;16.80;99.90;;;;;;5011826;28;20453;-57
2021/06/24 03:06:07;;;;;;;2.27;1.70;;;16.80;99.90;;;;;;5009511;28;20462;-58
2021/06/24 03:08:35;;;;;;;2.20;1.50;;;16.80;99.90;;;;;;4995516;28;20466;-58
2021/06/24 03:11:02;;;;;;;1.70;1.60;;;16.70;99.90;;;;;;5011001;28;20461;-58
2021/06/24 03:13:30;;;;;;;1.83;1.60;;;16.60;99.90;;;;;;5011537;28;20959;-58
2021/06/24 03:15:57;;;;;;;1.83;1.73;;;16.50;99.90;;;;;;5012573;28;20445;-58
2021/06/24 03:18:24;;;;;;;1.63;1.53;;;16.50;99.90;;;;;;5008763;28;20478;-58
2021/06/24 03:20:51;;;;;;;1.40;1.30;;;16.40;99.90;;;;;;4994686;28;20446;-58
2021/06/24 03:23:18;;;;;;;1.50;1.40;;;16.30;99.90;;;;;;5012482;28;20453;-58
2021/06/24 03:25:47;;;;;;;1.40;1.30;;;16.40;99.90;;;;;;5002970;28;20458;-58
2021/06/24 03:28:14;;;;;;;1.80;1.40;;;16.40;99.90;;;;;;5009643;28;20461;-58
2021/06/24 03:30:41;;;;;;;1.60;1.50;;;16.40;99.90;;;;;;5009040;28;20474;-58
2021/06/24 03:33:08;;;;;;;3.47;1.63;;;16.50;99.90;;;;;;4997008;28;20839;-58
2021/06/24 03:35:35;;;;;;;3.63;1.50;;;16.40;99.90;;;;;;5012319;28;20445;-58
2021/06/24 03:38:03;;;;;;;1.40;1.30;;;16.30;99.90;;;;;;5012066;28;20959;-58
2021/06/24 03:40:30;;;;;;;4.13;1.50;;;16.30;99.90;;;;;;5012413;28;21011;-58
2021/06/24 03:42:59;;;;;;;1.70;1.33;;;16.40;99.90;;;;;;5007360;28;20445;-58
2021/06/24 03:45:26;;;;;;;1.70;1.50;;;16.50;99.90;;;;;;5012460;28;20445;-58
2021/06/24 03:47:53;;;;;;;1.50;1.40;;;16.50;99.90;;;;;;5009776;28;20465;-58
2021/06/24 03:50:20;;;;;;;1.73;1.57;;;16.40;99.90;;;;;;5001295;28;20465;-58
2021/06/24 03:52:47;;;;;;;3.20;1.53;;;16.50;99.90;;;;;;5001898;28;20458;-58
2021/06/24 03:55:16;;;;;;;1.60;1.50;;;16.50;99.90;;;;;;5008589;28;20883;-58
2021/06/24 03:57:43;;;;;;;1.40;1.30;;;16.60;99.90;;;;;;5006314;28;20454;-58
2021/06/24 04:00:13;;;;;;;1.90;1.67;;;16.60;99.90;;;;;;5011765;28;20492;-58
2021/06/24 04:02:40;;;;;;;1.30;1.20;;;16.60;99.90;;;;;;4996582;28;20459;-57
2021/06/24 04:05:09;;;;;;;1.90;1.30;;;16.70;99.90;;;;;;5011994;28;20533;-57
2021/06/24 04:07:36;;;;;;;1.47;1.37;;;16.70;99.90;;;;;;5006886;28;20445;-57
2021/06/24 04:10:03;;;;;;;1.40;1.30;;;16.90;99.90;;;;;;5011783;28;20465;-58
2021/06/24 04:12:30;;;;;;;1.90;1.30;;;16.90;99.90;;;;;;5011758;28;20456;-57
2021/06/24 04:14:57;;;;;;;1.67;1.43;;;17.00;99.90;;;;;;5003955;28;20457;-58
2021/06/24 04:17:27;;;;;;;1.73;1.50;;;17.00;99.90;;;;;;4996434;28;20999;-58
2021/06/24 04:19:54;;;;;;;2.07;1.73;;;16.90;99.90;;;;;;5005588;28;20493;-58
2021/06/24 04:22:21;;;;;;;2.40;2.10;;;17.00;99.90;;;;;;5010670;28;20453;-58
2021/06/24 04:24:48;;;;;;;2.57;1.60;;;16.90;99.90;;;;;;4992257;28;20450;-58
2021/06/24 04:27:16;;;;;;;2.00;1.47;;;16.80;99.90;;;;;;4992286;28;20484;-58
2021/06/24 04:29:43;;;;;;;1.20;1.10;;;16.70;99.90;;;;;;4991984;28;21031;-58
2021/06/24 04:32:10;;;;;;;1.03;0.93;;;16.90;99.90;;;;;;4992168;28;20450;-58
2021/06/24 04:34:39;;;;;;;1.13;1.03;;;17.00;99.90;;;;;;4992332;28;20465;-58
2021/06/24 04:37:06;;;;;;;0.90;0.90;;;17.00;99.90;;;;;;5010914;28;20461;-58
2021/06/24 04:39:33;;;;;;;1.73;1.00;;;17.10;99.90;;;;;;5002454;28;20482;-58
2021/06/24 04:42:01;;;;;;;1.20;1.10;;;17.20;99.90;;;;;;4999004;28;20974;-58
2021/06/24 04:44:28;;;;;;;1.10;1.10;;;17.20;99.90;;;;;;5005572;28;20479;-59
2021/06/24 04:46:55;;;;;;;1.63;1.13;;;17.20;99.90;;;;;;5007333;28;20458;-57
2021/06/24 04:49:22;;;;;;;1.33;1.00;;;17.40;99.90;;;;;;5005176;28;20465;-58
2021/06/24 04:51:50;;;;;;;1.00;1.00;;;17.50;99.90;;;;;;5011136;28;20461;-58
2021/06/24 04:54:17;;;;;;;1.10;1.00;;;17.70;99.90;;;;;;5006508;28;20457;-58
2021/06/24 04:56:44;;;;;;;0.90;0.90;;;17.80;99.90;;;;;;5011273;28;20456;-58
2021/06/24 04:59:11;;;;;;;1.83;1.07;;;18.00;99.90;;;;;;5036981;22;20511;-50
2021/06/24 05:01:39;;;;;;;1.00;0.90;;;18.30;99.90;;;;;;5030368;28;20448;-49
2021/06/24 05:04:06;;;;;;;1.00;0.90;;;18.70;99.90;;;;;;5031107;28;20448;-50
2021/06/24 05:06:34;;;;;;;1.63;0.90;;;19.30;99.90;;;;;;5031176;28;20448;-49
2021/06/24 05:09:04;;;;;;;4.17;1.20;;;20.10;99.90;;;;;;5039647;28;21000;-49
2021/06/24 05:11:32;;;;;;;0.80;0.80;;;21.10;99.90;;;;;;5005354;28;20879;-49
2021/06/24 05:13:59;;;;;;;1.27;1.00;;;21.90;99.90;;;;;;5010803;28;20774;-50
2021/06/24 05:16:26;;;;;;;1.00;0.90;;;23.00;99.90;;;;;;5013143;28;20449;-49
2021/06/24 05:18:53;;;;;;;1.53;1.10;;;23.70;99.90;;;;;;5013725;28;20899;-50
2021/06/24 05:21:20;;;;;;;3.43;1.20;;;24.30;99.90;;;;;;5014678;28;20453;-50
2021/06/24 05:23:47;;;;;;;1.53;0.80;;;25.00;99.90;;;;;;5014568;28;20552;-50
2021/06/24 05:26:16;;;;;;;3.23;0.90;;;25.60;99.90;;;;;;5013528;28;20464;-50
2021/06/24 05:28:43;;;;;;;1.10;1.00;;;26.00;99.90;;;;;;5014437;28;20449;-51
2021/06/24 05:31:10;;;;;;;1.60;1.00;;;25.80;99.90;;;;;;5014513;28;20951;-50
2021/06/24 05:33:37;;;;;;;2.80;1.20;;;25.80;99.90;;;;;;5014350;28;20935;-51
2021/06/24 05:36:04;;;;;;;1.43;1.33;;;26.00;99.90;;;;;;5013974;28;20507;-50
2021/06/24 05:38:32;;;;;;;1.10;1.10;;;26.40;99.90;;;;;;5013816;28;20454;-50
2021/06/24 05:40:59;;;;;;;1.83;1.20;;;26.80;99.90;;;;;;5014017;28;20465;-50
2021/06/24 05:43:27;;;;;;;1.30;1.20;;;27.20;99.90;;;;;;5013612;28;20442;-49
2021/06/24 05:45:54;;;;;;;1.57;1.13;;;26.80;99.90;;;;;;5014312;28;20464;-50
2021/06/24 05:48:22;;;;;;;1.47;1.37;;;27.30;99.90;;;;;;5014285;28;20448;-51
2021/06/24 05:50:49;;;;;;;2.90;1.10;;;27.80;99.90;;;;;;5014120;28;20537;-51
2021/06/24 05:53:16;;;;;;;1.30;1.20;;;28.00;99.90;;;;;;5014013;28;20474;-50
2021/06/24 05:55:49;;;;;;;1.43;1.33;;;27.80;99.90;;;;;;5013713;28;20537;-51
2021/06/24 05:58:18;;;;;;;2.27;1.20;;;27.80;99.90;;;;;;5014002;28;20461;-51
2021/06/24 06:00:47;;;;;;;2.50;1.37;;;27.90;99.90;;;;;;5013861;28;20493;-51
2021/06/24 06:03:14;;;;;;;1.40;1.30;;;28.20;99.90;;;;;;5013169;28;20970;-50
2021/06/24 06:05:42;;;;;;;2.20;1.43;;;28.30;99.90;;;;;;5014165;28;20458;-51
2021/06/24 06:08:09;;;;;;;2.53;1.07;;;28.50;99.90;;;;;;5013979;28;20932;-50
2021/06/24 06:10:39;;;;;;;2.90;1.30;;;28.40;99.90;;;;;;5013484;28;20469;-51
2021/06/24 06:13:07;;;;;;;1.53;1.10;;;28.70;99.90;;;;;;5013147;28;20458;-51
2021/06/24 06:15:35;;;;;;;1.20;1.10;;;28.90;99.90;;;;;;5013769;28;20454;-50
2021/06/24 06:18:10;;;;;;;3.13;1.23;;;28.90;99.90;;;;;;5013381;28;20560;-51
2021/06/24 06:20:37;;;;;;;1.70;1.47;;;29.30;99.90;;;;;;5013612;28;21003;-51
2021/06/24 06:23:04;;;;;;;0.83;0.83;;;29.00;99.90;;;;;;5013161;28;20955;-51
2021/06/24 06:25:32;;;;;;;2.10;1.30;;;28.90;99.70;;;;;;5012956;28;20446;-51
2021/06/24 06:27:59;;;;;;;1.77;1.10;;;28.90;99.80;;;;;;5012763;28;20457;-51
2021/06/24 06:30:26;;;;;;;3.30;1.23;;;29.30;99.00;;;;;;5013288;28;20465;-50
2021/06/24 06:32:54;;;;;;;3.47;1.40;;;29.70;99.90;;;;;;5013059;28;20512;-51
2021/06/24 06:35:22;;;;;;;1.33;1.23;;;29.90;99.90;;;;;;5013408;28;20464;-51
2021/06/24 06:37:50;;;;;;;1.40;1.30;;;29.70;98.20;;;;;;5013058;28;20457;-51
2021/06/24 06:40:17;;;;;;;4.40;1.40;;;29.70;98.40;;;;;;5012946;28;20568;-51
2021/06/24 06:42:44;;;;;;;1.20;1.00;;;29.40;97.80;;;;;;5013055;28;20974;-51
2021/06/24 06:45:13;;;;;;;3.17;1.20;;;29.90;98.20;;;;;;5001440;28;20990;-51
2021/06/24 06:47:40;;;;;;;1.43;1.33;;;30.40;98.00;;;;;;5005050;28;20528;-50
2021/06/24 06:50:08;;;;;;;2.20;1.27;;;30.30;97.60;;;;;;5012938;28;20472;-50
2021/06/24 06:52:36;;;;;;;1.20;1.10;;;29.80;97.60;;;;;;5012897;28;20453;-50
2021/06/24 06:55:04;;;;;;;1.30;1.20;;;29.20;97.30;;;;;;5012409;28;20461;-51
2021/06/24 06:57:31;;;;;;;1.57;1.47;;;29.20;97.10;;;;;;5012815;28;20821;-51
2021/06/24 06:59:58;;;;;;;1.50;1.40;;;29.90;95.60;;;;;;5012528;28;20489;-51
2021/06/24 07:02:25;;;;;;;1.50;1.40;;;28.20;98.50;;;;;;5012530;28;20450;-51
2021/06/24 07:04:52;;;;;;;3.73;1.30;;;28.50;97.50;;;;;;5012553;28;20854;-51
2021/06/24 07:07:19;;;;;;;1.30;1.20;;;28.30;97.30;;;;;;5012775;28;20499;-51
2021/06/24 07:09:47;;;;;;;1.43;1.00;;;27.30;99.40;;;;;;5012585;28;20461;-51
2021/06/24 07:12:15;;;;;;;1.20;1.20;;;26.80;98.90;;;;;;5012372;28;20445;-50
2021/06/24 07:14:42;;;;;;;1.83;1.43;;;26.00;99.90;;;;;;5012369;28;20935;-50
2021/06/24 07:17:09;;;;;;;1.50;1.40;;;25.50;99.90;;;;;;5012211;28;20457;-50
2021/06/24 07:19:36;;;;;;;2.77;1.20;;;25.30;99.90;;;;;;5012298;28;20489;-50
2021/06/24 07:22:03;;;;;;;1.00;0.90;;;25.10;99.90;;;;;;5012371;28;20472;-50
2021/06/24 07:24:30;;;;;;;1.30;1.20;;;25.30;99.90;;;;;;5012422;28;20453;-51
2021/06/24 07:26:59;;;;;;;1.40;1.30;;;25.20;99.90;;;;;;5012418;28;20465;-51
2021/06/24 07:29:26;;;;;;;2.07;1.40;;;25.10;99.90;;;;;;5012337;28;20936;-51
2021/06/24 07:31:53;;;;;;;1.40;1.30;;;24.70;99.90;;;;;;5011123;28;20454;-51
2021/06/24 07:34:20;;;;;;;2.00;1.80;;;23.60;99.90;;;;;;5010059;28;20833;-51
2021/06/24 07:36:48;;;;;;;2.17;1.53;;;22.80;99.90;;;;;;5012383;28;20446;-50
2021/06/24 07:39:15;;;;;;;1.67;1.40;;;23.10;99.90;;;;;;5011976;28;20563;-50
2021/06/24 07:41:43;;;;;;;2.17;1.50;;;22.50;99.90;;;;;;5012051;28;21089;-51
2021/06/24 07:44:11;;;;;;;1.50;1.40;;;23.40;99.90;;;;;;5012326;28;20452;-51
2021/06/24 07:46:41;;;;;;;1.20;1.10;;;24.40;99.90;;;;;;5011703;28;20875;-51
2021/06/24 07:49:09;;;;;;;1.60;1.50;;;25.80;99.90;;;;;;5009332;28;21135;-51
2021/06/24 07:51:36;;;;;;;1.53;1.40;;;26.10;99.90;;;;;;5012030;28;20711;-51
2021/06/24 07:54:03;;;;;;;3.03;1.90;;;24.90;99.90;;;;;;5012024;28;20530;-50
2021/06/24 07:56:32;;;;;;;1.83;1.63;;;24.30;99.90;;;;;;5012073;28;20517;-51
2021/06/24 07:59:00;;;;;;;1.50;1.40;;;24.00;99.90;;;;;;5011461;28;20513;-51
2021/06/24 08:01:28;;;;;;;1.83;1.37;;;24.60;99.90;;;;;;5010363;28;20507;-51
2021/06/24 08:03:55;;;;;;;1.47;1.37;;;23.90;99.90;;;;;;5011214;28;20943;-51
2021/06/24 08:06:22;;;;;;;1.67;1.57;;;23.90;99.90;;;;;;5011364;28;20449;-50
2021/06/24 08:08:49;;;;;;;1.80;1.70;;;23.20;99.90;;;;;;5010944;28;20500;-50
2021/06/24 08:11:16;;;;;;;2.07;1.97;;;22.40;99.90;;;;;;5011160;28;20955;-50
2021/06/24 08:13:43;;;;;;;2.23;1.70;;;21.60;99.90;;;;;;5011068;28;20458;-50
2021/06/24 08:16:10;;;;;;;2.13;1.93;;;21.10;99.90;;;;;;5011081;28;20860;-50
2021/06/24 08:18:39;;;;;;;2.30;1.90;;;20.60;99.90;;;;;;5011694;28;20519;-50
2021/06/24 08:21:06;;;;;;;2.40;2.20;;;20.60;99.90;;;;;;5011042;28;20487;-50
2021/06/24 08:23:33;;;;;;;2.30;2.20;;;20.70;99.90;;;;;;5011296;28;20450;-50
2021/06/24 08:26:00;;;;;;;2.60;2.40;;;20.80;99.90;;;;;;5011741;28;20849;-50
2021/06/24 08:28:29;;;;;;;3.13;2.83;;;20.40;99.90;;;;;;5011016;28;20456;-50
2021/06/24 08:30:56;;;;;;;4.10;1.90;;;20.70;99.90;;;;;;5011097;28;20469;-50
2021/06/24 08:33:23;;;;;;;2.53;2.33;;;20.40;99.90;;;;;;5011137;28;20476;-50
2021/06/24 08:35:51;;;;;;;2.20;2.00;;;20.20;99.90;;;;;;5011335;28;20454;-50
2021/06/24 08:38:19;;;;;;;2.73;2.53;;;20.30;99.90;;;;;;5010706;28;20449;-49
2021/06/24 08:40:47;;;;;;;3.43;2.37;;;20.00;99.90;;;;;;5011047;28;20488;-49
2021/06/24 08:43:15;;;;;;;2.80;2.60;;;19.60;99.90;;;;;;5011133;28;20453;-49
2021/06/24 08:45:42;;;;;;;2.80;2.60;;;19.50;99.90;;;;;;5010740;28;20457;-50
2021/06/24 08:48:16;;;;;;;2.60;2.40;;;19.40;99.90;;;;;;5010778;28;20456;-50
2021/06/24 08:50:44;;;;;;;2.67;2.47;;;19.50;99.90;;;;;;5014881;28;20524;-50
2021/06/24 08:53:12;;;;;;;2.23;2.13;;;19.50;99.90;;;;;;5014645;28;20442;-50
2021/06/24 08:55:46;;;;;;;2.10;1.87;;;19.70;99.90;;;;;;5015273;28;20453;-50
2021/06/24 08:58:14;;;;;;;2.00;1.90;;;19.90;99.90;;;;;;5015121;28;20452;-50
2021/06/24 09:00:41;;;;;;;1.83;1.73;;;20.00;99.90;;;;;;5014546;28;20492;-49
2021/06/24 09:03:16;;;;;;;1.80;1.70;;;20.20;99.90;;;;;;5014892;28;20476;-50
2021/06/24 09:05:52;;;;;;;1.73;1.43;;;20.50;99.90;;;;;;5015149;28;20480;-50
2021/06/24 09:08:38;;;;;;;2.10;1.60;;;20.50;99.90;;;;;;5014639;28;20452;-50
2021/06/24 09:11:16;;;;;;;2.10;1.40;;;20.80;99.90;;;;;;5014564;28;20449;-50
2021/06/24 09:13:45;;;;;;;1.20;1.10;;;21.20;99.90;;;;;;5015012;28;20550;-50
2021/06/24 09:16:23;;;;;;;1.47;1.30;;;22.00;99.90;;;;;;5014090;28;20978;-51
2021/06/24 09:18:50;;;;;;;1.27;1.00;;;23.20;99.90;;;;;;5001576;28;20453;-51
2021/06/24 09:21:22;;;;;;;2.50;1.37;;;23.10;99.90;;;;;;5014772;28;20485;-50
2021/06/24 09:23:53;;;;;;;1.20;1.10;;;22.60;99.90;;;;;;5014923;28;20453;-50
2021/06/24 09:26:21;;;;;;;2.40;1.10;;;22.80;99.90;;;;;;5014406;28;20445;-49
2021/06/24 09:28:51;;;;;;;2.00;1.90;;;22.30;99.90;;;;;;5013829;28;20449;-49
2021/06/24 09:31:25;;;;;;;2.90;2.70;;;21.30;99.90;;;;;;5014295;28;20450;-49
2021/06/24 09:33:53;;;;;;;2.77;2.57;;;21.20;99.90;;;;;;5014717;28;20449;-50
2021/06/24 09:36:38;;;;;;;3.40;3.10;;;21.00;99.90;;;;;;5014689;28;20454;-50
2021/06/24 09:39:09;;;;;;;3.33;3.07;;;21.10;99.90;;;;;;5012860;28;20469;-50
2021/06/24 09:41:57;;;;;;;3.13;1.90;;;20.70;99.90;;;;;;5013780;28;20481;-50
2021/06/24 09:44:24;;;;;;;4.10;2.30;;;20.30;99.90;;;;;;5014339;28;20536;-50
2021/06/24 09:46:51;;;;;;;2.60;2.40;;;20.50;99.90;;;;;;5014014;28;20547;-50
2021/06/24 09:49:33;;;;;;;1.70;1.60;;;20.50;99.90;;;;;;5013754;28;20473;-50
2021/06/24 09:52:01;;;;;;;2.00;1.80;;;20.20;99.90;;;;;;5014104;28;20445;-50
2021/06/24 09:54:39;;;;;;;1.97;1.80;;;20.50;99.90;;;;;;5014314;28;20450;-50
2021/06/24 09:57:08;;;;;;;2.00;1.80;;;20.60;99.90;;;;;;5013819;28;20519;-50
2021/06/24 09:59:38;;;;;;;1.60;1.50;;;20.60;99.90;;;;;;5013470;28;20581;-50
2021/06/24 10:02:10;;;;;;;1.70;1.60;;;20.70;99.90;;;;;;5012573;28;20496;-51
2021/06/24 10:04:39;;;;;;;2.10;2.00;;;21.00;99.90;;;;;;5013449;28;20449;-50
2021/06/24 10:07:09;;;;;;;3.03;2.83;;;21.70;99.90;;;;;;5013439;28;20959;-51
2021/06/24 10:09:39;;;;;;;3.20;3.00;;;22.40;99.90;;;;;;5013303;28;20907;-51
2021/06/24 10:12:09;;;;;;;3.47;3.17;;;23.10;99.90;;;;;;5013629;28;20449;-51
2021/06/24 10:14:37;;;;;;;4.80;3.37;;;23.70;99.90;;;;;;5013497;28;20586;-51
2021/06/24 10:17:05;;;;;;;3.40;3.20;;;24.80;99.90;;;;;;5013349;28;20978;-51
2021/06/24 10:19:34;;;;;;;3.00;2.67;;;25.30;99.90;;;;;;5013363;28;20528;-51
2021/06/24 10:22:05;;;;;;;3.03;2.67;;;25.90;99.90;;;;;;5013649;28;20858;-51
2021/06/24 10:24:34;;;;;;;2.70;2.50;;;26.10;99.90;;;;;;5013398;28;20533;-51
2021/06/24 10:27:07;;;;;;;2.80;2.67;;;25.90;99.90;;;;;;5011463;28;20216;-51
2021/06/24 10:29:46;;;;;;;2.67;2.47;;;26.20;99.90;;;;;;5012982;28;20844;-51
2021/06/24 10:32:31;;;;;;;2.40;2.20;;;26.20;99.90;;;;;;5012442;28;20450;-50
2021/06/24 10:35:00;;;;;;;3.00;2.80;;;26.50;99.90;;;;;;5013436;28;20955;-51
2021/06/24 10:37:29;;;;;;;2.60;2.40;;;26.00;99.90;;;;;;5012568;28;20461;-50
2021/06/24 10:39:58;;;;;;;2.37;2.27;;;26.20;99.90;;;;;;5012930;28;20473;-51
2021/06/24 10:42:31;;;;;;;2.07;1.87;;;26.20;99.90;;;;;;5012618;28;20489;-51
2021/06/24 10:45:00;;;;;;;3.27;2.27;;;26.50;99.90;;;;;;5013007;28;20532;-50
2021/06/24 10:47:33;;;;;;;2.27;2.17;;;26.40;99.90;;;;;;5012515;28;20453;-50
2021/06/24 10:50:39;;;;;;;2.47;2.17;;;26.40;99.90;;;;;;4999796;28;20467;-50
2021/06/24 10:53:47;;;;;;;1.90;1.80;;;26.80;99.90;;;;;;4993248;28;20484;-50
2021/06/24 10:56:44;;;;;;;1.80;1.70;;;26.00;99.90;;;;;;4993120;28;20459;-51
2021/06/24 10:59:27;;;;;;;1.70;1.60;;;26.10;99.90;;;;;;4992855;28;20518;-50
2021/06/24 11:02:11;;;;;;;2.30;2.20;;;26.00;99.90;;;;;;5059825;22;21022;-58
2021/06/24 11:04:40;;;;;;;2.83;2.60;;;25.70;99.90;;;;;;5051999;28;20540;-59
2021/06/24 11:07:25;;;;;;;2.97;2.87;;;25.30;99.90;;;;;;5052312;28;20455;-58
2021/06/24 11:10:17;;;;;;;2.80;2.60;;;25.10;99.90;;;;;;5052213;28;20452;-59
2021/06/24 11:13:12;;;;;;;3.37;2.30;;;25.00;99.90;;;;;;5031357;28;20448;-59
2021/06/24 11:15:54;;;;;;;3.00;2.80;;;25.00;99.90;;;;;;5029980;28;20460;-59
2021/06/24 11:18:55;;;;;;;3.53;3.23;;;25.10;99.90;;;;;;5032443;28;20470;-59
2021/06/24 11:21:44;;;;;;;7.40;2.90;;;25.20;99.90;;;;;;5031768;28;20491;-59
2021/06/24 11:24:17;;;;;;;2.83;2.73;;;25.20;99.90;;;;;;5017429;28;20883;-59
2021/06/24 11:26:45;;;;;;;4.20;3.10;;;25.10;99.90;;;;;;5030574;28;20456;-58
2021/06/24 11:32:16;;;;;;;2.60;2.40;;;25.20;99.90;;;;;;5016049;28;20990;-59
2021/06/24 11:34:54;;;;;;;3.00;2.80;;;25.40;99.90;;;;;;5023062;28;20472;-58
2021/06/24 11:37:29;;;;;;;2.87;2.67;;;24.90;99.90;;;;;;5013690;28;20449;-59
2021/06/24 11:39:58;;;;;;;2.50;2.40;;;24.60;99.90;;;;;;5019508;28;20452;-59
2021/06/24 11:42:30;;;;;;;2.67;2.43;;;24.70;99.90;;;;;;5030848;28;20997;-59
2021/06/24 11:44:57;;;;;;;3.30;3.10;;;24.60;99.90;;;;;;5032084;28;20467;-59
2021/06/24 11:47:28;;;;;;;2.57;2.40;;;24.30;99.90;;;;;;5031401;28;21004;-58
2021/06/24 12:04:20;;;;;;;3.37;3.07;;;24.00;99.90;;;;;;4987533;28;20433;-59
2021/06/24 12:06:50;;;;;;;3.07;2.77;;;24.20;99.90;;;;;;5024359;28;20448;-59
2021/06/24 12:09:21;;;;;;;2.40;2.30;;;24.10;99.90;;;;;;5029459;28;20456;-59
2021/06/24 12:11:50;;;;;;;2.13;2.03;;;24.20;99.90;;;;;;5031050;28;20891;-58
2021/06/24 12:14:19;;;;;;;2.60;2.50;;;24.20;99.90;;;;;;5031137;28;20531;-59
2021/06/24 12:17:21;;;;;;;2.37;2.17;;;24.20;99.90;;;;;;5031196;28;20441;-59
2021/06/24 12:20:04;;;;;;;4.37;2.30;;;24.20;99.90;;;;;;4970599;28;20810;-59
2021/06/24 12:22:43;;;;;;;2.30;2.20;;;24.20;99.90;;;;;;4969651;28;20490;-59
2021/06/24 12:25:12;;;;;;;2.10;2.00;;;24.30;99.90;;;;;;5011962;28;20957;-58
2021/06/24 12:27:40;;;;;;;1.70;1.60;;;24.30;99.90;;;;;;5034487;28;20467;-59
2021/06/24 12:30:11;;;;;;;4.10;3.80;;;24.50;99.90;;;;;;5035365;28;20818;-58
2021/06/24 12:32:39;;;;;;;1.80;1.70;;;24.40;99.90;;;;;;5035015;28;20445;-59
2021/06/24 12:35:08;;;;;;;2.10;2.00;;;24.60;99.90;;;;;;5035329;28;20491;-57
2021/06/24 12:37:39;;;;;;;2.00;1.90;;;24.60;99.90;;;;;;5035210;28;20459;-60
2021/06/24 12:40:10;;;;;;;1.83;1.67;;;24.70;99.90;;;;;;5034267;28;20476;-59
2021/06/24 12:42:47;;;;;;;1.57;1.47;;;25.00;99.90;;;;;;5034443;28;20484;-59
2021/06/24 12:45:17;;;;;;;1.93;1.33;;;24.80;99.90;;;;;;5035501;28;20455;-59
2021/06/24 12:47:46;;;;;;;1.63;1.50;;;25.00;99.90;;;;;;5034999;28;20942;-59
2021/06/24 12:50:24;;;;;;;1.50;1.40;;;24.70;99.90;;;;;;5033342;28;20460;-59
2021/06/24 12:52:53;;;;;;;1.83;1.73;;;24.70;99.90;;;;;;5025874;28;20823;-59
2021/06/24 12:55:38;;;;;;;2.60;1.50;;;24.40;99.90;;;;;;5015253;28;20445;-58
2021/06/24 12:58:06;;;;;;;1.80;1.70;;;24.50;99.90;;;;;;5034609;28;20456;-59
2021/06/24 13:00:34;;;;;;;1.80;1.70;;;24.40;99.90;;;;;;5034606;28;20488;-59
2021/06/24 13:03:02;;;;;;;1.60;1.50;;;24.70;99.90;;;;;;5034330;28;20480;-58
2021/06/24 13:05:32;;;;;;;1.50;1.40;;;25.00;99.90;;;;;;5034474;28;20893;-59
2021/06/24 13:08:02;;;;;;;1.40;1.30;;;25.40;99.90;;;;;;5034868;28;20498;-59
2021/06/24 13:10:29;;;;;;;1.30;1.20;;;25.30;99.90;;;;;;5034619;28;20860;-58
2021/06/24 13:12:56;;;;;;;1.40;1.30;;;25.30;99.90;;;;;;5033911;28;20453;-58
2021/06/24 13:15:34;;;;;;;1.67;1.57;;;25.50;99.90;;;;;;5034452;28;20459;-59
2021/06/24 13:18:01;;;;;;;2.10;1.50;;;25.30;99.90;;;;;;5034415;28;20816;-59